createdAt,value
2023-02-13T00:00:23.856Z,10.30
2023-02-13T00:02:51.043Z,10.82
2023-02-13T00:05:18.285Z,10.63
2023-02-13T00:07:45.315Z,11.25
2023-02-13T00:10:12.637Z,10.40
2023-02-13T00:12:39.839Z,11.07
2023-02-13T00:15:07.782Z,11.57
2023-02-13T00:17:34.883Z,11.15
2023-02-13T00:20:02.023Z,12.52
2023-02-13T00:22:29.086Z,13.98
2023-02-13T00:24:56.107Z,13.32
2023-02-13T00:27:23.050Z,13.13
2023-02-13T00:29:50.087Z,13.50
2023-02-13T00:32:17.039Z,14.40
2023-02-13T00:34:44.285Z,14.38
2023-02-13T00:37:11.641Z,13.73
2023-02-13T00:39:38.733Z,14.38
2023-02-13T00:42:06.300Z,14.93
2023-02-13T00:44:33.690Z,14.70
2023-02-13T00:47:01.716Z,15.45
2023-02-13T00:49:28.825Z,14.55
2023-02-13T00:51:55.742Z,14.88
2023-02-13T00:54:22.721Z,14.50
2023-02-13T00:56:50.011Z,13.57
2023-02-13T00:59:17.778Z,13.90
2023-02-13T01:01:44.981Z,14.02
2023-02-13T01:04:11.931Z,13.88
2023-02-13T01:06:38.876Z,14.65
2023-02-13T01:09:06.494Z,13.88
2023-02-13T01:11:35.999Z,15.05
2023-02-13T01:14:03.199Z,14.63
2023-02-13T01:16:30.192Z,15.70
2023-02-13T01:18:57.206Z,14.90
2023-02-13T01:21:24.561Z,15.00
2023-02-13T01:23:53.754Z,14.35
2023-02-13T01:26:23.702Z,15.38
2023-02-13T01:28:55.281Z,16.85
2023-02-13T01:31:22.693Z,16.48
2023-02-13T01:33:50.870Z,15.15
2023-02-13T01:36:21.727Z,14.80
2023-02-13T01:38:52.475Z,14.88
2023-02-13T01:41:19.389Z,14.68
2023-02-13T01:43:53.860Z,15.85
2023-02-13T01:46:43.468Z,15.32
2023-02-13T01:49:18.745Z,14.25
2023-02-13T01:51:47.211Z,13.77
2023-02-13T01:54:18.476Z,16.65
2023-02-13T01:56:55.251Z,15.43
2023-02-13T01:59:31.124Z,15.00
2023-02-13T02:01:58.783Z,16.33
2023-02-13T02:04:31.059Z,17.40
2023-02-13T02:07:11.675Z,17.70
2023-02-13T02:09:41.085Z,17.15
2023-02-13T02:12:31.984Z,15.95
2023-02-13T02:15:01.633Z,15.38
2023-02-13T02:17:31.841Z,17.00
2023-02-13T02:20:20.696Z,16.08
2023-02-13T02:23:12.373Z,14.70
2023-02-13T02:26:16.040Z,16.48
2023-02-13T02:29:01.613Z,16.20
2023-02-13T02:31:53.642Z,17.38
2023-02-13T02:34:42.432Z,16.13
2023-02-13T02:37:43.396Z,15.13
2023-02-13T02:40:16.568Z,15.48
2023-02-13T02:43:09.411Z,17.13
2023-02-13T02:45:58.368Z,14.77
2023-02-13T02:48:50.026Z,16.25
2023-02-13T02:51:27.183Z,15.93
2023-02-13T02:55:03.904Z,15.05
2023-02-13T02:57:54.032Z,16.15
2023-02-13T03:00:43.927Z,17.23
2023-02-13T03:03:43.644Z,17.00
2023-02-13T03:06:23.350Z,15.60
2023-02-13T03:09:16.609Z,18.92
2023-02-13T03:12:07.650Z,15.10
2023-02-13T03:14:34.820Z,17.98
2023-02-13T03:17:21.899Z,18.23
2023-02-13T03:20:19.617Z,18.20
2023-02-13T03:23:14.356Z,16.58
2023-02-13T03:26:02.973Z,18.20
2023-02-13T03:29:21.036Z,18.80
2023-02-13T03:32:01.694Z,17.25
2023-02-13T03:34:55.867Z,15.95
2023-02-13T03:37:49.785Z,17.50
2023-02-13T03:40:23.676Z,17.92
2023-02-13T03:43:17.412Z,17.00
2023-02-13T03:45:54.186Z,16.40
2023-02-13T03:48:49.801Z,17.40
2023-02-13T03:51:23.785Z,17.50
2023-02-13T03:53:56.058Z,18.92
2023-02-13T03:56:44.167Z,18.02
2023-02-13T03:59:22.834Z,15.90
2023-02-13T04:02:12.936Z,19.10
2023-02-13T04:04:59.090Z,17.77
2023-02-13T04:07:33.275Z,16.17
2023-02-13T04:10:02.809Z,16.70
2023-02-13T04:12:46.950Z,17.35
2023-02-13T04:15:38.528Z,18.48
2023-02-13T04:18:11.393Z,16.98
2023-02-13T04:20:39.605Z,17.77
2023-02-13T04:23:11.294Z,19.75
2023-02-13T04:25:41.308Z,18.23
2023-02-13T04:28:08.806Z,19.48
2023-02-13T04:30:36.169Z,19.83
2023-02-13T04:33:03.242Z,19.92
2023-02-13T04:35:30.176Z,18.75
2023-02-13T04:37:57.110Z,19.25
2023-02-13T04:40:24.296Z,18.50
2023-02-13T04:42:54.306Z,17.83
2023-02-13T04:45:21.623Z,18.75
2023-02-13T04:47:56.254Z,18.65
2023-02-13T04:50:24.500Z,19.27
2023-02-13T04:52:56.888Z,16.75
2023-02-13T04:55:26.068Z,17.73
2023-02-13T04:57:54.514Z,19.02
2023-02-13T05:00:26.620Z,16.75
2023-02-13T05:02:53.934Z,16.33
2023-02-13T05:05:21.572Z,17.17
2023-02-13T05:07:48.757Z,18.35
2023-02-13T05:10:15.859Z,18.00
2023-02-13T05:12:42.746Z,17.13
2023-02-13T05:15:10.075Z,17.58
2023-02-13T05:17:37.154Z,18.00
2023-02-13T05:20:04.488Z,17.95
2023-02-13T05:22:49.999Z,16.85
2023-02-13T05:25:17.219Z,16.10
2023-02-13T05:27:44.248Z,16.75
2023-02-13T05:30:11.898Z,15.50
2023-02-13T05:32:39.299Z,15.10
2023-02-13T05:35:06.533Z,17.05
2023-02-13T05:37:33.546Z,15.63
2023-02-13T05:40:00.568Z,15.75
2023-02-13T05:42:27.511Z,15.00
2023-02-13T05:44:54.417Z,15.85
2023-02-13T05:47:21.390Z,16.20
2023-02-13T05:49:48.343Z,15.60
2023-02-13T05:52:15.547Z,16.00
2023-02-13T05:54:42.538Z,14.80
2023-02-13T05:57:09.479Z,15.48
2023-02-13T05:59:36.432Z,13.85
2023-02-13T06:02:03.486Z,14.43
2023-02-13T06:04:30.601Z,14.63
2023-02-13T06:06:57.734Z,16.00
2023-02-13T06:09:24.854Z,15.07
2023-02-13T06:11:51.870Z,13.52
2023-02-13T06:14:18.976Z,13.45
2023-02-13T06:16:45.917Z,12.00
2023-02-13T06:19:12.978Z,12.48
2023-02-13T06:21:39.921Z,11.55
2023-02-13T06:24:08.341Z,11.80
2023-02-13T06:26:35.670Z,11.98
2023-02-13T06:29:02.892Z,11.27
2023-02-13T06:31:30.598Z,11.50
2023-02-13T06:33:57.666Z,11.85
2023-02-13T06:36:24.604Z,12.23
2023-02-13T06:38:51.712Z,10.65
2023-02-13T06:41:19.237Z,11.25
2023-02-13T06:43:46.264Z,11.98
2023-02-13T06:46:13.468Z,11.88
2023-02-13T06:48:40.526Z,12.75
2023-02-13T06:51:07.483Z,12.85
2023-02-13T06:53:34.470Z,11.45
2023-02-13T06:56:07.124Z,12.32
2023-02-13T06:58:34.518Z,12.00
2023-02-13T07:01:01.597Z,12.57
2023-02-13T07:03:28.607Z,11.98
2023-02-13T07:05:56.642Z,11.07
2023-02-13T07:08:23.795Z,12.40
2023-02-13T07:10:50.864Z,11.98
2023-02-13T07:13:17.943Z,12.30
2023-02-13T07:15:45.161Z,12.77
2023-02-13T07:18:12.104Z,12.00
2023-02-13T07:20:39.276Z,12.68
2023-02-13T07:23:07.586Z,13.45
2023-02-13T07:25:35.374Z,12.60
2023-02-13T07:28:07.001Z,13.60
2023-02-13T07:30:34.953Z,12.55
2023-02-13T07:33:03.471Z,13.48
2023-02-13T07:35:30.935Z,13.13
2023-02-13T07:37:59.385Z,12.00
2023-02-13T07:40:26.615Z,11.82
2023-02-13T07:42:53.690Z,11.40
2023-02-13T07:45:20.658Z,11.90
2023-02-13T07:47:47.744Z,11.73
2023-02-13T07:50:14.812Z,11.15
2023-02-13T07:52:41.874Z,11.65
2023-02-13T07:55:09.067Z,10.95
2023-02-13T07:57:36.093Z,13.00
2023-02-13T08:00:03.748Z,11.75
2023-02-13T08:02:38.879Z,13.35
2023-02-13T08:05:06.305Z,14.75
2023-02-13T08:07:33.699Z,15.48
2023-02-13T08:10:30.249Z,14.40
2023-02-13T08:12:57.368Z,13.20
2023-02-13T08:15:24.414Z,13.77
2023-02-13T08:17:51.401Z,12.85
2023-02-13T08:20:18.543Z,13.10
2023-02-13T08:22:45.528Z,12.93
2023-02-13T08:25:13.257Z,12.18
2023-02-13T08:27:40.409Z,13.80
2023-02-13T08:30:09.201Z,14.05
2023-02-13T08:32:52.873Z,13.65
2023-02-13T08:35:20.952Z,14.45
2023-02-13T08:37:48.006Z,21.95
2023-02-13T08:40:15.235Z,30.63
2023-02-13T08:42:42.276Z,35.35
2023-02-13T08:45:11.732Z,38.45
2023-02-13T08:47:40.043Z,35.88
2023-02-13T08:50:08.035Z,26.05
2023-02-13T08:52:35.290Z,20.63
2023-02-13T08:55:03.669Z,17.60
2023-02-13T08:57:31.431Z,14.77
2023-02-13T08:59:58.857Z,14.77
2023-02-13T09:02:26.023Z,14.45
2023-02-13T09:04:53.606Z,14.82
2023-02-13T09:07:20.608Z,14.50
2023-02-13T09:09:48.256Z,15.82
2023-02-13T09:12:15.399Z,13.85
2023-02-13T09:14:43.189Z,14.98
2023-02-13T09:17:10.114Z,13.93
2023-02-13T09:19:37.113Z,13.55
2023-02-13T09:22:04.147Z,12.80
2023-02-13T09:24:31.213Z,14.27
2023-02-13T09:26:58.331Z,15.05
2023-02-13T09:29:25.697Z,15.93
2023-02-13T09:31:53.900Z,18.13
2023-02-13T09:34:20.928Z,15.38
2023-02-13T09:36:53.013Z,16.20
2023-02-13T09:39:20.476Z,13.77
2023-02-13T09:41:50.613Z,13.68
2023-02-13T09:44:36.411Z,13.63
2023-02-13T09:47:37.852Z,14.05
2023-02-13T09:50:11.149Z,12.88
2023-02-13T09:52:39.631Z,13.73
2023-02-13T09:55:17.902Z,13.07
2023-02-13T09:58:02.048Z,14.95
2023-02-13T10:00:42.968Z,12.38
2023-02-13T10:03:15.935Z,13.25
2023-02-13T10:05:54.991Z,12.93
2023-02-13T10:08:34.804Z,15.20
2023-02-13T10:11:36.168Z,14.23
2023-02-13T10:14:32.858Z,14.15
2023-02-13T10:17:08.269Z,12.93
2023-02-13T10:20:18.894Z,14.18
2023-02-13T10:22:52.052Z,14.80
2023-02-13T10:25:27.244Z,14.20
2023-02-13T10:28:00.401Z,16.17
2023-02-13T10:30:37.085Z,14.38
2023-02-13T10:33:19.194Z,14.77
2023-02-13T10:36:08.530Z,14.15
2023-02-13T10:38:43.566Z,12.73
2023-02-13T10:41:35.134Z,13.40
2023-02-13T10:44:20.960Z,11.90
2023-02-13T10:47:09.193Z,12.75
2023-02-13T10:50:04.691Z,13.10
2023-02-13T10:52:46.801Z,12.75
2023-02-13T10:55:59.078Z,12.32
2023-02-13T10:58:41.250Z,11.40
2023-02-13T11:01:25.504Z,11.10
2023-02-13T11:04:04.431Z,10.82
2023-02-13T11:06:34.797Z,10.98
2023-02-13T11:09:01.899Z,10.27
2023-02-13T11:11:30.804Z,9.85
2023-02-13T11:14:25.593Z,10.25
2023-02-13T11:16:58.838Z,9.57
2023-02-13T11:19:40.038Z,9.05
2023-02-13T11:22:15.176Z,8.95
2023-02-13T11:24:50.837Z,8.73
2023-02-13T11:27:26.808Z,8.73
2023-02-13T11:32:28.407Z,9.65
2023-02-13T11:34:56.192Z,8.50
2023-02-13T11:37:26.375Z,8.55
2023-02-13T11:39:59.398Z,8.85
2023-02-13T11:42:31.228Z,7.82
2023-02-13T11:45:29.136Z,8.80
2023-02-13T11:47:56.603Z,7.55
2023-02-13T11:50:28.597Z,7.88
2023-02-13T11:52:56.003Z,6.80
2023-02-13T11:55:38.363Z,8.05
2023-02-13T11:58:11.733Z,7.82
2023-02-13T12:00:41.527Z,7.80
2023-02-13T12:03:29.879Z,7.57
2023-02-13T12:06:09.332Z,7.47
2023-02-13T12:08:38.499Z,7.88
2023-02-13T12:11:17.378Z,7.60
2023-02-13T12:13:45.719Z,8.00
2023-02-13T12:16:26.925Z,8.25
2023-02-13T12:18:59.052Z,7.28
2023-02-13T12:21:45.276Z,7.82
2023-02-13T12:24:15.606Z,8.18
2023-02-13T12:26:48.362Z,8.20
2023-02-13T12:29:23.042Z,7.47
2023-02-13T12:32:05.452Z,7.07
2023-02-13T12:34:57.739Z,7.57
2023-02-13T12:37:52.905Z,6.85
2023-02-13T12:40:58.117Z,6.60
2023-02-13T12:43:37.352Z,6.82
2023-02-13T12:46:32.028Z,7.40
2023-02-13T12:48:59.169Z,7.47
2023-02-13T12:51:34.981Z,7.90
2023-02-13T12:54:05.077Z,8.70
2023-02-13T12:56:46.411Z,8.88
2023-02-13T12:59:32.149Z,8.93
2023-02-13T13:02:27.754Z,7.03
2023-02-13T13:05:15.354Z,7.45
2023-02-13T13:07:50.593Z,9.48
2023-02-13T13:10:45.383Z,9.60
2023-02-13T13:13:23.852Z,11.32
2023-02-13T13:16:06.441Z,9.48
2023-02-13T13:18:51.410Z,12.25
2023-02-13T13:21:38.109Z,10.13
2023-02-13T13:24:28.888Z,9.45
2023-02-13T13:26:57.495Z,8.88
2023-02-13T13:29:43.819Z,8.27
2023-02-13T13:34:41.654Z,7.43
2023-02-13T13:37:25.106Z,7.50
2023-02-13T13:39:58.131Z,7.22
2023-02-13T13:42:50.772Z,7.90
2023-02-13T13:45:36.097Z,7.00
2023-02-13T13:48:27.942Z,7.00
2023-02-13T13:50:56.056Z,7.63
2023-02-13T13:53:24.015Z,7.43
2023-02-13T13:55:51.615Z,7.75
2023-02-13T13:58:44.676Z,7.68
2023-02-13T14:01:29.772Z,7.40
2023-02-13T14:04:03.727Z,7.50
2023-02-13T14:06:46.093Z,7.20
2023-02-13T14:09:28.926Z,7.35
2023-02-13T14:11:56.798Z,7.50
2023-02-13T14:14:30.639Z,7.22
2023-02-13T14:17:04.983Z,7.70
2023-02-13T14:19:39.795Z,7.25
2023-02-13T14:22:19.369Z,8.25
2023-02-13T14:24:57.279Z,7.68
2023-02-13T14:27:28.694Z,8.57
2023-02-13T14:29:56.616Z,8.57
2023-02-13T14:32:35.042Z,8.02
2023-02-13T14:35:23.509Z,8.85
2023-02-13T14:37:50.468Z,8.93
2023-02-13T14:40:17.633Z,9.25
2023-02-13T14:42:54.017Z,9.20
2023-02-13T14:46:07.190Z,10.40
2023-02-13T14:48:43.122Z,12.60
2023-02-13T14:53:53.253Z,11.75
2023-02-13T14:56:23.173Z,11.68
2023-02-13T14:59:24.244Z,10.27
2023-02-13T15:01:58.026Z,11.00
2023-02-13T15:04:38.452Z,10.80
2023-02-13T15:07:13.321Z,13.70
2023-02-13T15:09:45.058Z,13.75
2023-02-13T15:12:36.109Z,14.05
2023-02-13T15:15:23.830Z,12.38
2023-02-13T15:17:52.941Z,11.57
2023-02-13T15:20:30.378Z,11.90
2023-02-13T15:22:57.791Z,13.65
2023-02-13T15:25:40.994Z,14.15
2023-02-13T15:28:16.790Z,16.13
2023-02-13T15:30:59.651Z,15.82
2023-02-13T15:33:54.579Z,13.35
2023-02-13T15:36:25.464Z,12.15
2023-02-13T15:39:11.207Z,12.20
2023-02-13T15:41:42.632Z,12.40
2023-02-13T15:44:40.476Z,13.70
2023-02-13T15:47:08.725Z,16.67
2023-02-13T15:49:43.562Z,16.35
2023-02-13T15:52:30.134Z,13.43
2023-02-13T15:54:57.785Z,12.05
2023-02-13T15:57:26.932Z,12.15
2023-02-13T15:59:57.517Z,11.38
2023-02-13T16:02:46.364Z,11.55
2023-02-13T16:05:17.155Z,11.38
2023-02-13T16:07:54.549Z,10.10
2023-02-13T16:10:32.113Z,10.95
2023-02-13T16:13:02.898Z,12.00
2023-02-13T16:15:32.115Z,11.77
2023-02-13T16:17:59.713Z,12.38
2023-02-13T16:20:29.699Z,13.07
2023-02-13T16:23:16.195Z,11.77
2023-02-13T16:25:43.510Z,12.13
2023-02-13T16:28:13.500Z,11.82
2023-02-13T16:30:46.585Z,12.55
2023-02-13T16:33:16.795Z,12.25
2023-02-13T16:35:54.029Z,12.02
2023-02-13T16:38:41.579Z,13.23
2023-02-13T16:41:22.239Z,12.27
2023-02-13T16:43:49.391Z,14.00
2023-02-13T16:46:19.275Z,14.63
2023-02-13T16:48:48.714Z,14.25
2023-02-13T16:51:22.487Z,13.65
2023-02-13T16:53:58.390Z,13.50
2023-02-13T16:59:24.412Z,13.50
2023-02-13T17:02:31.792Z,13.15
2023-02-13T17:07:48.292Z,12.27
2023-02-13T17:10:34.106Z,12.75
2023-02-13T17:13:07.428Z,13.57
2023-02-13T17:15:34.710Z,12.52
2023-02-13T17:18:01.679Z,13.32
2023-02-13T17:20:31.989Z,15.00
2023-02-13T17:23:01.765Z,19.65
2023-02-13T17:25:31.576Z,16.15
2023-02-13T17:28:01.940Z,14.50
2023-02-13T17:30:32.256Z,13.68
2023-02-13T17:33:10.259Z,14.20
2023-02-13T17:35:37.426Z,16.90
2023-02-13T17:38:06.305Z,15.63
2023-02-13T17:40:33.938Z,14.15
2023-02-13T17:43:01.430Z,13.43
2023-02-13T17:45:31.710Z,13.63
2023-02-13T17:47:59.221Z,14.07
2023-02-13T17:50:29.784Z,13.77
2023-02-13T17:52:57.420Z,14.15
2023-02-13T17:55:26.656Z,14.07
2023-02-13T17:57:56.746Z,13.70
2023-02-13T18:00:26.986Z,12.85
2023-02-13T18:02:55.026Z,12.85
2023-02-13T18:05:22.294Z,12.52
2023-02-13T18:07:49.704Z,12.93
2023-02-13T18:10:23.227Z,12.75
2023-02-13T18:12:51.669Z,14.20
2023-02-13T18:15:19.353Z,13.52
2023-02-13T18:17:46.952Z,12.98
2023-02-13T18:20:17.309Z,13.13
2023-02-13T18:22:44.691Z,13.23
2023-02-13T18:25:12.748Z,11.30
2023-02-13T18:27:40.057Z,11.65
2023-02-13T18:30:08.279Z,12.77
2023-02-13T18:32:35.708Z,12.75
2023-02-13T18:35:02.971Z,11.77
2023-02-13T18:37:30.208Z,10.07
2023-02-13T18:39:57.611Z,9.25
2023-02-13T18:42:24.719Z,11.68
2023-02-13T18:44:51.936Z,10.00
2023-02-13T18:47:19.536Z,10.20
2023-02-13T18:49:46.582Z,10.32
2023-02-13T18:52:13.987Z,10.98
2023-02-13T18:54:41.041Z,10.73
2023-02-13T18:57:08.313Z,11.23
2023-02-13T18:59:35.561Z,11.35
2023-02-13T19:02:04.362Z,10.88
2023-02-13T19:04:31.781Z,12.02
2023-02-13T19:06:58.771Z,12.10
2023-02-13T19:09:25.945Z,11.43
2023-02-13T19:11:53.091Z,11.52
2023-02-13T19:14:20.707Z,11.52
2023-02-13T19:16:47.638Z,11.88
2023-02-13T19:19:14.686Z,11.20
2023-02-13T19:21:41.765Z,10.80
2023-02-13T19:24:09.803Z,11.35
2023-02-13T19:26:37.008Z,11.30
2023-02-13T19:29:04.408Z,10.15
2023-02-13T19:31:33.022Z,10.68
2023-02-13T19:34:05.918Z,11.38
2023-02-13T19:36:33.001Z,10.45
2023-02-13T19:39:06.355Z,12.80
2023-02-13T19:41:33.485Z,15.57
2023-02-13T19:44:01.229Z,16.45
2023-02-13T19:46:31.184Z,14.10
2023-02-13T19:48:58.839Z,14.10
2023-02-13T19:51:28.569Z,13.50
2023-02-13T19:54:06.734Z,13.65
2023-02-13T19:56:36.544Z,18.85
2023-02-13T19:59:05.001Z,19.52
2023-02-13T20:01:32.248Z,18.65
2023-02-13T20:04:00.933Z,20.65
2023-02-13T20:06:35.020Z,20.08
2023-02-13T20:09:06.913Z,22.15
2023-02-13T20:11:34.094Z,22.08
2023-02-13T20:14:01.194Z,22.13
2023-02-13T20:16:33.144Z,20.60
2023-02-13T20:19:09.591Z,19.52
2023-02-13T20:21:37.747Z,17.55
2023-02-13T20:24:05.801Z,14.68
2023-02-13T20:26:33.940Z,12.55
2023-02-13T20:29:01.562Z,12.30
2023-02-13T20:31:29.979Z,11.50
2023-02-13T20:33:58.242Z,12.23
2023-02-13T20:36:27.625Z,11.35
2023-02-13T20:38:57.874Z,11.15
2023-02-13T20:41:28.054Z,12.48
2023-02-13T20:43:58.820Z,12.95
2023-02-13T20:46:25.926Z,13.43
2023-02-13T20:48:52.951Z,12.98
2023-02-13T20:51:19.988Z,13.77
2023-02-13T20:53:47.218Z,13.90
2023-02-13T20:56:18.416Z,12.38
2023-02-13T20:58:46.682Z,11.50
2023-02-13T21:01:20.262Z,12.43
2023-02-13T21:03:53.519Z,11.60
2023-02-13T21:06:25.768Z,11.88
2023-02-13T21:08:53.200Z,10.15
2023-02-13T21:11:21.105Z,12.02
2023-02-13T21:13:48.673Z,11.15
2023-02-13T21:16:23.957Z,9.70
2023-02-13T21:18:56.385Z,11.40
2023-02-13T21:21:26.497Z,12.07
2023-02-13T21:23:55.454Z,10.15
2023-02-13T21:26:22.896Z,10.73
2023-02-13T21:28:50.359Z,10.70
2023-02-13T21:31:25.601Z,10.20
2023-02-13T21:33:52.820Z,9.65
2023-02-13T21:36:19.871Z,8.98
2023-02-13T21:38:46.798Z,9.77
2023-02-13T21:41:15.995Z,9.63
2023-02-13T21:43:46.830Z,9.77
2023-02-13T21:46:21.208Z,9.10
2023-02-13T21:48:52.333Z,9.48
2023-02-13T21:51:21.582Z,9.32
2023-02-13T21:53:49.716Z,8.77
2023-02-13T21:56:19.388Z,9.05
2023-02-13T21:58:47.356Z,9.18
2023-02-13T22:01:26.630Z,9.13
2023-02-13T22:04:00.808Z,9.02
2023-02-13T22:06:29.656Z,9.68
2023-02-13T22:09:08.659Z,9.60
2023-02-13T22:11:39.543Z,9.10
2023-02-13T22:14:10.459Z,9.63
2023-02-13T22:16:38.365Z,8.93
2023-02-13T22:19:06.871Z,9.18
2023-02-13T22:21:35.648Z,9.23
2023-02-13T22:24:02.859Z,9.15
2023-02-13T22:26:32.369Z,9.50
2023-02-13T22:29:04.596Z,9.13
2023-02-13T22:31:31.780Z,9.82
2023-02-13T22:34:03.773Z,9.20
2023-02-13T22:36:38.905Z,8.50
2023-02-13T22:39:08.073Z,8.52
2023-02-13T22:41:35.290Z,9.52
2023-02-13T22:44:02.223Z,8.93
2023-02-13T22:46:33.513Z,8.63
2023-02-13T22:49:00.716Z,8.98
2023-02-13T22:51:33.978Z,8.00
2023-02-13T22:54:01.397Z,8.98
2023-02-13T22:56:29.797Z,9.38
2023-02-13T22:58:57.616Z,8.25
2023-02-13T23:01:26.584Z,8.60
2023-02-13T23:03:54.026Z,7.95
2023-02-13T23:06:22.051Z,8.82
2023-02-13T23:08:52.488Z,8.55
2023-02-13T23:11:39.333Z,7.85
2023-02-13T23:14:06.289Z,8.30
2023-02-13T23:16:53.439Z,9.10
2023-02-13T23:19:21.437Z,7.45
2023-02-13T23:21:48.883Z,7.97
2023-02-13T23:24:15.938Z,8.63
2023-02-13T23:26:43.439Z,8.48
2023-02-13T23:29:13.507Z,8.55
2023-02-13T23:31:40.652Z,8.52
2023-02-13T23:34:07.773Z,7.65
2023-02-13T23:36:35.185Z,8.15
2023-02-13T23:39:02.175Z,8.23
2023-02-13T23:41:29.220Z,7.60
2023-02-13T23:43:56.178Z,7.95
2023-02-13T23:46:23.226Z,8.70
2023-02-13T23:48:50.270Z,7.50
2023-02-13T23:51:18.439Z,7.72
2023-02-13T23:53:45.599Z,7.57
2023-02-13T23:56:15.613Z,7.95
2023-02-13T23:58:42.606Z,7.53
